Time;durP1;ratioP1;P1;durP2;ratioP2;P2;SDS_P1;SDS_P2;PMS_P1;PMS_P2;Temp;Humidity;BMP_temperature;BMP_pressure;BME280_temperature;BME280_humidity;BME280_pressure;Samples;Min_cycle;Max_cycle;Signal;HPM_P1;HPM_P2
2023/10/05 00:01:56;;;;;;;10.52;3.67;;;;;;;;;;4887032;28;20035;-72
2023/10/05 00:03:51;;;;;;;10.57;3.95;;;;;;;;;;4880012;28;20524;-72
2023/10/05 00:06:23;;;;;;;11.23;3.58;;;;;;;;;;4892193;28;20458;-72
2023/10/05 00:08:50;;;;;;;10.57;3.58;;;;;;;;;;4885368;28;20614;-72
2023/10/05 00:11:23;;;;;;;13.98;3.50;;;;;;;;;;4892100;28;20472;-71
2023/10/05 00:13:50;;;;;;;12.55;3.72;;;;;;;;;;4900930;28;20893;-73
2023/10/05 00:16:22;;;;;;;11.10;3.83;;;;;;;;;;4886270;28;20380;-71
2023/10/05 00:18:52;;;;;;;12.02;3.97;;;;;;;;;;4887610;28;20043;-72
2023/10/05 00:21:20;;;;;;;11.35;3.38;;;;;;;;;;4891064;28;21083;-72
2023/10/05 00:23:53;;;;;;;12.15;3.78;;;;;;;;;;4884982;28;20552;-71
2023/10/05 00:26:20;;;;;;;10.13;3.50;;;;;;;;;;4885991;28;20027;-72
2023/10/05 00:29:04;;;;;;;11.45;3.47;;;;;;;;;;4886722;28;20043;-73
2023/10/05 00:31:32;;;;;;;8.40;2.95;;;;;;;;;;4888215;28;20015;-71
2023/10/05 00:33:59;;;;;;;10.40;3.30;;;;;;;;;;4887268;28;20959;-74
2023/10/05 00:36:27;;;;;;;9.10;3.03;;;;;;;;;;4904560;28;20043;-71
2023/10/05 00:39:01;;;;;;;11.95;3.40;;;;;;;;;;4925154;28;20165;-72
2023/10/05 00:41:28;;;;;;;9.65;3.33;;;;;;;;;;4928534;28;20028;-72
2023/10/05 00:43:54;;;;;;;11.00;3.60;;;;;;;;;;4923650;28;20604;-72
2023/10/05 00:46:21;;;;;;;9.60;3.03;;;;;;;;;;4928779;28;20031;-71
2023/10/05 00:49:15;;;;;;;10.55;2.92;;;;;;;;;;4925935;28;20126;-73
2023/10/05 00:51:44;;;;;;;11.27;3.20;;;;;;;;;;4929374;28;20070;-72
2023/10/05 00:54:18;;;;;;;8.60;2.75;;;;;;;;;;4929056;28;20041;-72
2023/10/05 00:56:46;;;;;;;9.50;2.88;;;;;;;;;;4927300;28;20023;-74
2023/10/05 00:59:20;;;;;;;9.93;2.65;;;;;;;;;;4928363;28;20483;-73
2023/10/05 01:04:52;;;;;;;8.60;2.88;;;;;;;;;;4930422;28;20050;-73
2023/10/05 01:07:21;;;;;;;9.38;3.28;;;;;;;;;;4924519;28;20185;-72
2023/10/05 01:15:06;;;;;;;10.77;2.65;;;;;;;;;;4926938;28;20489;-72
2023/10/05 01:17:32;;;;;;;7.65;2.58;;;;;;;;;;4930589;28;20109;-73
2023/10/05 01:20:21;;;;;;;9.85;2.72;;;;;;;;;;4925614;28;20398;-72
2023/10/05 01:22:48;;;;;;;10.90;2.78;;;;;;;;;;4925777;28;20074;-72
2023/10/05 01:25:15;;;;;;;8.48;2.70;;;;;;;;;;4941403;28;20077;-72
2023/10/05 01:27:43;;;;;;;10.27;3.08;;;;;;;;;;4930579;28;20034;-72
2023/10/05 01:30:12;;;;;;;6.90;2.20;;;;;;;;;;4941793;28;20513;-73
2023/10/05 01:32:41;;;;;;;8.82;2.40;;;;;;;;;;4934041;28;20544;-72
2023/10/05 01:35:12;;;;;;;8.68;2.65;;;;;;;;;;4930719;28;20048;-72
2023/10/05 01:37:39;;;;;;;8.45;2.30;;;;;;;;;;4934095;28;20114;-72
2023/10/05 01:40:14;;;;;;;7.97;2.60;;;;;;;;;;4926452;28;22447;-73
2023/10/05 01:42:44;;;;;;;8.75;2.58;;;;;;;;;;4933897;28;20028;-72
2023/10/05 01:45:16;;;;;;;10.10;2.65;;;;;;;;;;4931569;28;20043;-73
2023/10/05 01:47:46;;;;;;;8.75;2.30;;;;;;;;;;4945040;28;20039;-72
2023/10/05 01:50:19;;;;;;;8.73;2.50;;;;;;;;;;4930057;28;20657;-72
2023/10/05 01:52:49;;;;;;;7.55;2.60;;;;;;;;;;4945633;28;20023;-73
2023/10/05 01:55:18;;;;;;;8.43;2.80;;;;;;;;;;4928492;28;20521;-72
2023/10/05 01:57:44;;;;;;;8.43;2.40;;;;;;;;;;4939500;28;20023;-73
2023/10/05 02:00:14;;;;;;;8.68;2.78;;;;;;;;;;4928329;28;20031;-74
2023/10/05 02:02:42;;;;;;;8.23;2.50;;;;;;;;;;4935644;28;20653;-73
2023/10/05 02:05:10;;;;;;;10.18;2.50;;;;;;;;;;4942025;28;20035;-73
2023/10/05 02:07:38;;;;;;;10.90;2.80;;;;;;;;;;4934317;28;20153;-73
2023/10/05 02:10:09;;;;;;;8.23;2.50;;;;;;;;;;4932117;28;20333;-71
2023/10/05 02:12:36;;;;;;;6.70;2.25;;;;;;;;;;4929768;28;20473;-72
2023/10/05 02:15:06;;;;;;;10.50;2.63;;;;;;;;;;4927822;28;20509;-72
2023/10/05 02:17:33;;;;;;;7.95;2.53;;;;;;;;;;4928659;28;20020;-71
2023/10/05 02:20:00;;;;;;;8.68;2.75;;;;;;;;;;4940197;28;20406;-71
2023/10/05 02:22:27;;;;;;;11.40;2.80;;;;;;;;;;4929533;28;20015;-72
2023/10/05 02:24:55;;;;;;;8.98;2.55;;;;;;;;;;4925801;28;20035;-72
2023/10/05 02:27:26;;;;;;;8.75;2.30;;;;;;;;;;4947176;28;20125;-72
2023/10/05 02:29:53;;;;;;;10.60;2.65;;;;;;;;;;4929939;28;20039;-72
2023/10/05 02:32:22;;;;;;;11.75;2.90;;;;;;;;;;4931974;28;20089;-72
2023/10/05 02:35:17;;;;;;;13.77;3.10;;;;;;;;;;4929847;28;20034;-72
2023/10/05 02:37:48;;;;;;;9.52;2.85;;;;;;;;;;4935622;28;20031;-73
2023/10/05 02:40:15;;;;;;;10.57;2.90;;;;;;;;;;4924200;28;20043;-72
2023/10/05 02:42:41;;;;;;;11.32;3.10;;;;;;;;;;4932556;28;20034;-71
2023/10/05 02:45:10;;;;;;;10.15;3.05;;;;;;;;;;4927857;28;20236;-71
2023/10/05 02:47:37;;;;;;;12.25;3.15;;;;;;;;;;4925490;28;21387;-73
2023/10/05 02:50:05;;;;;;;9.07;2.53;;;;;;;;;;4926171;28;20576;-71
2023/10/05 02:52:33;;;;;;;12.93;2.83;;;;;;;;;;4929656;28;20031;-71
2023/10/05 02:54:59;;;;;;;9.80;2.50;;;;;;;;;;4925073;28;20034;-71
2023/10/05 02:57:26;;;;;;;8.73;2.50;;;;;;;;;;4929724;28;20488;-73
2023/10/05 02:59:52;;;;;;;10.50;3.00;;;;;;;;;;4928381;28;20036;-71
2023/10/05 03:02:18;;;;;;;8.85;2.72;;;;;;;;;;4945802;28;20027;-71
2023/10/05 03:04:45;;;;;;;9.35;3.70;;;;;;;;;;4929946;28;20448;-71
2023/10/05 03:07:18;;;;;;;15.55;3.35;;;;;;;;;;4941124;28;20466;-71
2023/10/05 03:09:46;;;;;;;11.63;3.22;;;;;;;;;;4930103;28;20110;-71
2023/10/05 03:12:13;;;;;;;8.93;3.53;;;;;;;;;;4928709;28;20035;-72
2023/10/05 03:14:45;;;;;;;10.27;3.25;;;;;;;;;;4931086;28;20050;-72
2023/10/05 03:17:19;;;;;;;10.95;3.42;;;;;;;;;;4927654;28;20194;-73
2023/10/05 03:19:45;;;;;;;9.80;2.80;;;;;;;;;;4930447;28;20053;-73
2023/10/05 03:22:15;;;;;;;10.15;3.00;;;;;;;;;;4931268;28;20308;-73
2023/10/05 03:24:44;;;;;;;9.18;3.03;;;;;;;;;;4933049;28;20027;-74
2023/10/05 03:27:14;;;;;;;9.13;3.03;;;;;;;;;;4928351;28;20299;-72
2023/10/05 03:29:45;;;;;;;8.52;2.33;;;;;;;;;;4928668;28;20095;-72
2023/10/05 03:34:37;;;;;;;10.15;2.90;;;;;;;;;;4929990;28;20187;-71
2023/10/05 03:37:08;;;;;;;9.32;2.83;;;;;;;;;;4926133;28;20034;-72
2023/10/05 03:39:39;;;;;;;10.65;2.75;;;;;;;;;;4929926;28;20030;-72
2023/10/05 03:42:05;;;;;;;8.80;2.70;;;;;;;;;;4930288;28;20023;-72
2023/10/05 03:44:32;;;;;;;10.40;3.13;;;;;;;;;;4930760;28;20464;-71
2023/10/05 03:46:58;;;;;;;9.98;2.90;;;;;;;;;;4930412;28;20058;-72
2023/10/05 03:49:24;;;;;;;10.20;2.65;;;;;;;;;;4939202;28;20043;-72
2023/10/05 03:51:51;;;;;;;9.60;2.50;;;;;;;;;;4928944;28;20042;-72
2023/10/05 03:54:21;;;;;;;9.10;2.47;;;;;;;;;;4946759;28;20034;-72
2023/10/05 03:56:59;;;;;;;9.20;2.60;;;;;;;;;;4926684;28;20486;-72
2023/10/05 03:59:27;;;;;;;10.02;3.00;;;;;;;;;;4948943;28;20377;-71
2023/10/05 04:01:55;;;;;;;8.18;2.67;;;;;;;;;;4925476;28;20086;-72
2023/10/05 04:04:22;;;;;;;8.43;2.50;;;;;;;;;;4934392;28;20126;-73
2023/10/05 04:06:51;;;;;;;10.02;2.60;;;;;;;;;;4930024;28;20565;-73
2023/10/05 04:09:19;;;;;;;9.55;3.22;;;;;;;;;;4942974;28;20536;-73
2023/10/05 04:11:46;;;;;;;10.45;3.42;;;;;;;;;;4931822;28;20038;-73
2023/10/05 04:14:13;;;;;;;11.55;3.30;;;;;;;;;;4930787;28;20102;-73
2023/10/05 04:16:39;;;;;;;10.18;3.00;;;;;;;;;;4932254;28;20027;-73
2023/10/05 04:19:05;;;;;;;9.15;2.83;;;;;;;;;;4928115;28;20090;-71
2023/10/05 04:21:35;;;;;;;10.10;3.30;;;;;;;;;;4945600;28;20568;-71
2023/10/05 04:24:02;;;;;;;13.13;3.70;;;;;;;;;;4923680;28;20027;-71
2023/10/05 04:26:39;;;;;;;11.15;4.25;;;;;;;;;;4944178;28;20133;-72
2023/10/05 04:29:08;;;;;;;9.63;3.63;;;;;;;;;;4924184;28;20023;-72
2023/10/05 04:31:38;;;;;;;10.18;3.20;;;;;;;;;;4930461;28;20988;-72
2023/10/05 04:34:06;;;;;;;10.48;2.97;;;;;;;;;;4930034;28;20058;-71
2023/10/05 04:36:32;;;;;;;9.00;2.78;;;;;;;;;;4945891;28;20042;-72
2023/10/05 04:38:59;;;;;;;10.93;2.50;;;;;;;;;;4930918;28;20026;-72
2023/10/05 04:41:28;;;;;;;9.10;2.75;;;;;;;;;;4930030;28;20345;-72
2023/10/05 04:43:55;;;;;;;7.60;2.13;;;;;;;;;;4929506;28;20052;-72
2023/10/05 04:46:21;;;;;;;10.52;3.00;;;;;;;;;;4946943;28;20473;-71
2023/10/05 04:48:56;;;;;;;10.27;2.70;;;;;;;;;;4944763;28;20584;-73
2023/10/05 04:51:28;;;;;;;7.03;2.40;;;;;;;;;;4941852;28;20121;-73
2023/10/05 04:53:58;;;;;;;9.43;2.60;;;;;;;;;;4927479;28;20792;-73
2023/10/05 05:07:07;;;;;;;9.00;3.20;;;;;;;;;;4926896;28;20635;-73
2023/10/05 05:09:34;;;;;;;8.65;3.08;;;;;;;;;;4930006;28;20037;-72
2023/10/05 05:12:04;;;;;;;8.73;2.75;;;;;;;;;;4928930;28;20035;-73
2023/10/05 05:14:33;;;;;;;10.68;2.90;;;;;;;;;;4928726;28;20269;-72
2023/10/05 05:17:06;;;;;;;7.03;2.53;;;;;;;;;;4928703;28;20042;-72
2023/10/05 05:19:35;;;;;;;8.90;2.50;;;;;;;;;;4928635;28;20122;-74
2023/10/05 05:22:04;;;;;;;8.45;2.78;;;;;;;;;;4926811;28;20031;-72
2023/10/05 05:24:31;;;;;;;8.07;2.30;;;;;;;;;;4928179;28;20576;-71
2023/10/05 05:27:03;;;;;;;9.43;2.67;;;;;;;;;;4929985;28;20400;-72
2023/10/05 05:29:33;;;;;;;11.50;2.53;;;;;;;;;;4948368;28;20129;-72
2023/10/05 05:32:11;;;;;;;8.98;2.55;;;;;;;;;;4924196;28;20058;-72
2023/10/05 05:34:44;;;;;;;9.55;2.47;;;;;;;;;;4928091;28;20233;-72
2023/10/05 05:37:14;;;;;;;7.22;2.45;;;;;;;;;;4940479;28;20580;-71
2023/10/05 05:39:40;;;;;;;8.00;2.38;;;;;;;;;;4930187;28;20027;-73
2023/10/05 05:42:13;;;;;;;7.07;2.40;;;;;;;;;;4944807;28;20042;-74
2023/10/05 05:44:40;;;;;;;10.20;2.67;;;;;;;;;;4947667;28;20034;-72
2023/10/05 05:47:10;;;;;;;7.00;2.20;;;;;;;;;;4932563;28;20425;-72
2023/10/05 05:49:45;;;;;;;9.15;3.17;;;;;;;;;;4927296;28;20508;-72
2023/10/05 05:52:12;;;;;;;9.13;3.05;;;;;;;;;;4928896;28;20034;-72
2023/10/05 05:54:42;;;;;;;10.35;3.75;;;;;;;;;;4930450;28;20041;-75
2023/10/05 05:57:11;;;;;;;8.73;2.75;;;;;;;;;;4942984;28;20469;-72
2023/10/05 05:59:38;;;;;;;12.88;3.67;;;;;;;;;;4930683;28;20141;-72
2023/10/05 06:02:08;;;;;;;10.35;3.22;;;;;;;;;;4924295;28;20059;-72
2023/10/05 06:04:39;;;;;;;7.55;2.65;;;;;;;;;;4925066;28;20089;-71
2023/10/05 06:07:13;;;;;;;10.15;2.78;;;;;;;;;;4938838;28;20469;-71
2023/10/05 06:09:43;;;;;;;7.55;2.20;;;;;;;;;;4942560;28;20428;-72
2023/10/05 06:12:15;;;;;;;9.63;2.63;;;;;;;;;;4924854;28;20394;-73
2023/10/05 06:14:41;;;;;;;9.00;2.80;;;;;;;;;;4928505;28;20066;-72
2023/10/05 06:17:08;;;;;;;10.65;2.50;;;;;;;;;;4924137;28;20449;-72
2023/10/05 06:19:36;;;;;;;10.55;3.08;;;;;;;;;;4931635;28;20420;-71
2023/10/05 06:22:03;;;;;;;8.52;2.63;;;;;;;;;;4926140;28;20027;-72
2023/10/05 06:24:30;;;;;;;11.27;3.38;;;;;;;;;;4927839;28;20110;-71
2023/10/05 06:26:56;;;;;;;19.00;4.68;;;;;;;;;;4930458;28;20038;-71
2023/10/05 06:29:22;;;;;;;17.10;4.45;;;;;;;;;;4929347;28;20031;-72
2023/10/05 06:31:48;;;;;;;12.18;4.00;;;;;;;;;;4930576;28;20034;-72
2023/10/05 06:34:14;;;;;;;10.55;3.60;;;;;;;;;;4941631;28;20568;-73
2023/10/05 06:36:41;;;;;;;15.48;4.47;;;;;;;;;;4927683;28;20024;-73
2023/10/05 06:39:14;;;;;;;14.70;3.75;;;;;;;;;;4926922;28;20042;-71
2023/10/05 06:41:41;;;;;;;12.32;3.70;;;;;;;;;;4931161;28;20023;-71
2023/10/05 06:44:08;;;;;;;15.07;3.75;;;;;;;;;;4923230;28;20035;-73
2023/10/05 06:46:34;;;;;;;15.95;4.00;;;;;;;;;;4926987;28;20058;-73
2023/10/05 06:49:03;;;;;;;13.07;4.00;;;;;;;;;;4927957;28;20037;-73
2023/10/05 06:51:30;;;;;;;17.48;4.40;;;;;;;;;;4929565;28;20031;-73
2023/10/05 06:54:00;;;;;;;12.35;4.25;;;;;;;;;;4937464;28;20409;-71
2023/10/05 06:56:27;;;;;;;10.43;3.60;;;;;;;;;;4926206;28;20292;-72
2023/10/05 06:58:53;;;;;;;13.25;4.10;;;;;;;;;;4928820;28;20086;-72
2023/10/05 07:01:20;;;;;;;16.17;4.05;;;;;;;;;;4928567;28;20038;-72
2023/10/05 07:03:52;;;;;;;14.15;3.65;;;;;;;;;;4923683;28;20051;-73
2023/10/05 07:06:19;;;;;;;21.15;4.25;;;;;;;;;;4924746;28;20695;-72
2023/10/05 07:08:46;;;;;;;13.85;3.80;;;;;;;;;;4932686;28;20063;-72
2023/10/05 07:11:12;;;;;;;11.85;3.20;;;;;;;;;;4947739;28;20035;-72
2023/10/05 07:13:38;;;;;;;12.52;3.53;;;;;;;;;;4931804;28;20030;-72
2023/10/05 07:16:05;;;;;;;10.95;3.05;;;;;;;;;;4929814;28;20769;-72
2023/10/05 07:18:32;;;;;;;10.77;2.95;;;;;;;;;;4931146;28;20046;-72
2023/10/05 07:20:58;;;;;;;13.98;3.35;;;;;;;;;;4927243;28;20106;-71
2023/10/05 07:23:24;;;;;;;11.52;2.75;;;;;;;;;;4928636;28;20254;-72
2023/10/05 07:25:51;;;;;;;13.25;3.10;;;;;;;;;;4924562;28;20034;-72
2023/10/05 07:28:17;;;;;;;10.82;3.90;;;;;;;;;;4929745;28;20067;-71
2023/10/05 07:30:45;;;;;;;12.02;4.45;;;;;;;;;;4931557;28;20273;-72
2023/10/05 07:33:14;;;;;;;15.75;4.18;;;;;;;;;;4928001;28;20031;-74
2023/10/05 07:35:41;;;;;;;10.93;3.05;;;;;;;;;;4928925;28;20234;-72
2023/10/05 07:38:11;;;;;;;10.30;3.50;;;;;;;;;;4943557;28;20150;-71
2023/10/05 07:40:38;;;;;;;10.90;3.65;;;;;;;;;;4930620;28;20492;-74
2023/10/05 07:43:06;;;;;;;11.68;3.83;;;;;;;;;;4926412;28;20031;-71
2023/10/05 07:45:32;;;;;;;10.73;3.58;;;;;;;;;;4929099;28;20039;-72
2023/10/05 07:47:59;;;;;;;14.00;4.53;;;;;;;;;;4930121;28;20039;-72
2023/10/05 07:50:26;;;;;;;13.57;4.72;;;;;;;;;;4930435;28;20241;-73
2023/10/05 07:52:53;;;;;;;13.15;4.70;;;;;;;;;;4924121;28;20035;-72
2023/10/05 07:55:20;;;;;;;11.90;4.35;;;;;;;;;;4934550;28;20397;-72
2023/10/05 07:57:46;;;;;;;13.23;4.40;;;;;;;;;;4934473;28;20714;-72
2023/10/05 08:00:13;;;;;;;10.70;4.13;;;;;;;;;;4947245;28;20485;-72
2023/10/05 08:02:40;;;;;;;10.55;3.83;;;;;;;;;;4928042;28;20138;-73
2023/10/05 08:05:08;;;;;;;10.68;3.67;;;;;;;;;;4925823;28;20031;-72
2023/10/05 08:07:34;;;;;;;9.77;2.80;;;;;;;;;;4922697;28;20200;-72
2023/10/05 08:10:01;;;;;;;11.00;2.63;;;;;;;;;;4924780;28;20027;-72
2023/10/05 08:12:30;;;;;;;9.55;3.00;;;;;;;;;;4931849;28;20035;-72
2023/10/05 08:14:56;;;;;;;10.05;2.80;;;;;;;;;;4923910;28;20054;-74
2023/10/05 08:17:22;;;;;;;8.98;3.20;;;;;;;;;;4932231;28;20114;-73
2023/10/05 08:19:48;;;;;;;11.88;3.00;;;;;;;;;;4926626;28;20026;-72
2023/10/05 08:22:18;;;;;;;10.63;2.88;;;;;;;;;;4932383;28;20429;-73
2023/10/05 08:24:44;;;;;;;11.55;3.00;;;;;;;;;;4927432;28;20045;-72
2023/10/05 08:27:16;;;;;;;13.23;3.20;;;;;;;;;;4922681;28;20501;-72
2023/10/05 08:29:44;;;;;;;13.88;3.20;;;;;;;;;;4925239;28;20045;-73
2023/10/05 08:32:13;;;;;;;13.75;3.05;;;;;;;;;;4943283;28;20572;-72
2023/10/05 08:34:41;;;;;;;10.02;3.00;;;;;;;;;;4926666;28;20460;-71
2023/10/05 08:37:08;;;;;;;12.45;3.20;;;;;;;;;;4925810;28;20032;-71
2023/10/05 08:39:37;;;;;;;10.48;3.35;;;;;;;;;;4943043;28;20027;-72
2023/10/05 08:42:06;;;;;;;12.05;3.30;;;;;;;;;;4924234;28;20032;-71
2023/10/05 08:44:41;;;;;;;12.13;3.45;;;;;;;;;;4947272;28;20034;-73
2023/10/05 08:47:11;;;;;;;12.02;3.30;;;;;;;;;;4930057;28;20038;-72
2023/10/05 08:49:38;;;;;;;11.73;3.15;;;;;;;;;;4929674;28;20026;-72
2023/10/05 08:52:13;;;;;;;12.93;3.25;;;;;;;;;;4928062;28;20532;-72
2023/10/05 08:54:40;;;;;;;11.57;3.05;;;;;;;;;;4939067;28;20418;-72
2023/10/05 08:57:12;;;;;;;8.50;2.90;;;;;;;;;;4922977;28;21927;-73
2023/10/05 08:59:39;;;;;;;11.43;2.97;;;;;;;;;;4933073;28;20399;-74
2023/10/05 09:02:08;;;;;;;13.02;3.00;;;;;;;;;;4931789;28;20112;-72
2023/10/05 09:04:43;;;;;;;10.35;2.80;;;;;;;;;;4929610;28;20042;-74
2023/10/05 09:07:11;;;;;;;11.20;3.03;;;;;;;;;;4930567;28;20135;-74
2023/10/05 09:09:56;;;;;;;10.80;2.75;;;;;;;;;;4926660;28;20533;-77
2023/10/05 09:12:41;;;;;;;11.05;2.70;;;;;;;;;;4943976;28;20117;-73
2023/10/05 09:18:05;;;;;;;10.75;2.95;;;;;;;;;;4928044;28;20713;-74
2023/10/05 09:20:36;;;;;;;10.10;3.10;;;;;;;;;;4931124;28;20450;-72
2023/10/05 09:23:07;;;;;;;14.82;3.25;;;;;;;;;;4927184;28;20031;-73
2023/10/05 09:25:38;;;;;;;11.63;3.10;;;;;;;;;;4941764;28;20112;-73
2023/10/05 09:28:15;;;;;;;11.52;3.20;;;;;;;;;;4928373;28;20174;-72
2023/10/05 09:30:55;;;;;;;14.52;3.35;;;;;;;;;;4946578;28;20255;-73
2023/10/05 09:33:21;;;;;;;9.50;3.25;;;;;;;;;;4930343;28;20117;-74
2023/10/05 09:35:48;;;;;;;9.00;2.85;;;;;;;;;;4926719;28;20066;-73
2023/10/05 09:38:17;;;;;;;10.00;2.72;;;;;;;;;;4928817;28;20042;-72
2023/10/05 09:40:47;;;;;;;12.27;3.08;;;;;;;;;;4927028;28;20467;-75
2023/10/05 09:43:14;;;;;;;11.50;2.60;;;;;;;;;;4930865;28;20389;-72
2023/10/05 09:45:43;;;;;;;9.18;2.88;;;;;;;;;;4926940;28;20035;-73
2023/10/05 09:48:09;;;;;;;10.38;2.75;;;;;;;;;;4924494;28;20545;-73
2023/10/05 09:50:36;;;;;;;11.50;3.03;;;;;;;;;;4944208;28;20644;-72
2023/10/05 09:53:06;;;;;;;8.45;2.78;;;;;;;;;;4940083;28;20039;-73
2023/10/05 09:55:33;;;;;;;12.02;3.08;;;;;;;;;;4932364;28;20027;-73
2023/10/05 09:58:05;;;;;;;10.18;2.72;;;;;;;;;;4932904;28;20031;-73
2023/10/05 10:03:05;;;;;;;8.52;2.72;;;;;;;;;;4928486;28;20241;-72
2023/10/05 10:05:35;;;;;;;10.38;2.80;;;;;;;;;;4933236;28;20039;-71
2023/10/05 10:08:08;;;;;;;12.88;3.22;;;;;;;;;;4944972;28;20055;-74
2023/10/05 10:10:36;;;;;;;12.65;3.10;;;;;;;;;;4931268;28;20158;-73
2023/10/05 10:13:11;;;;;;;12.55;2.72;;;;;;;;;;4926508;28;20633;-72
2023/10/05 10:15:40;;;;;;;8.57;2.40;;;;;;;;;;4918690;28;20177;-73
2023/10/05 10:18:13;;;;;;;11.93;2.70;;;;;;;;;;4946086;28;21000;-72
2023/10/05 10:20:40;;;;;;;9.48;2.50;;;;;;;;;;4946727;28;20055;-72
2023/10/05 10:23:21;;;;;;;9.90;2.88;;;;;;;;;;4943640;28;20039;-72
2023/10/05 10:25:50;;;;;;;9.18;2.58;;;;;;;;;;4930113;28;20026;-72
2023/10/05 10:31:17;;;;;;;8.73;2.55;;;;;;;;;;4929517;28;20050;-72
2023/10/05 10:33:50;;;;;;;12.57;3.00;;;;;;;;;;4934200;28;20038;-72
2023/10/05 10:36:19;;;;;;;11.10;2.85;;;;;;;;;;4933382;28;20039;-71
2023/10/05 10:38:50;;;;;;;9.93;2.65;;;;;;;;;;4931735;28;20665;-74
2023/10/05 10:41:17;;;;;;;10.27;2.45;;;;;;;;;;4934435;28;20074;-73
2023/10/05 10:43:52;;;;;;;10.15;2.63;;;;;;;;;;4944824;28;20490;-74
2023/10/05 10:46:30;;;;;;;10.05;2.50;;;;;;;;;;4944536;28;20039;-72
2023/10/05 10:48:59;;;;;;;10.38;2.85;;;;;;;;;;4927231;28;20051;-72
2023/10/05 10:51:27;;;;;;;8.93;2.40;;;;;;;;;;4929810;28;20071;-72
2023/10/05 10:53:57;;;;;;;9.98;2.85;;;;;;;;;;4925816;28;20031;-72
2023/10/05 10:56:57;;;;;;;8.27;2.70;;;;;;;;;;4933831;28;20360;-73
2023/10/05 10:59:26;;;;;;;10.27;2.63;;;;;;;;;;4934148;28;20577;-73
2023/10/05 11:01:59;;;;;;;9.18;2.67;;;;;;;;;;4925369;28;20291;-73
2023/10/05 11:04:39;;;;;;;10.32;2.88;;;;;;;;;;4949758;28;20206;-72
2023/10/05 11:07:06;;;;;;;9.43;2.75;;;;;;;;;;4929042;28;20051;-72
2023/10/05 11:09:48;;;;;;;8.23;2.47;;;;;;;;;;4930647;28;20074;-72
2023/10/05 11:12:20;;;;;;;9.00;2.50;;;;;;;;;;4952641;28;20045;-73
2023/10/05 11:14:47;;;;;;;10.55;2.63;;;;;;;;;;4925002;28;20027;-72
2023/10/05 11:17:30;;;;;;;8.50;2.50;;;;;;;;;;4930212;28;20106;-72
2023/10/05 11:19:57;;;;;;;10.65;2.65;;;;;;;;;;4929187;28;20037;-72
2023/10/05 11:22:24;;;;;;;11.52;2.67;;;;;;;;;;4932810;28;20327;-73
2023/10/05 11:25:00;;;;;;;9.63;2.80;;;;;;;;;;4936695;28;20061;-72
2023/10/05 11:27:27;;;;;;;9.55;2.72;;;;;;;;;;4929261;28;20551;-72
2023/10/05 11:29:55;;;;;;;12.05;2.90;;;;;;;;;;4927127;28;20035;-72
2023/10/05 11:32:25;;;;;;;10.88;2.85;;;;;;;;;;4930179;28;20033;-72
2023/10/05 11:34:55;;;;;;;8.07;2.35;;;;;;;;;;4930324;28;20482;-72
2023/10/05 11:37:25;;;;;;;10.23;2.60;;;;;;;;;;4928573;28;20394;-72
2023/10/05 11:39:58;;;;;;;9.00;2.65;;;;;;;;;;4926901;28;20496;-73
2023/10/05 11:42:25;;;;;;;8.70;2.75;;;;;;;;;;4930521;28;20054;-73
2023/10/05 11:44:59;;;;;;;9.55;2.72;;;;;;;;;;4927946;28;20031;-74
2023/10/05 11:47:32;;;;;;;9.35;3.17;;;;;;;;;;4934882;28;20122;-73
2023/10/05 11:50:06;;;;;;;8.13;2.53;;;;;;;;;;4928681;28;20820;-73
2023/10/05 11:52:32;;;;;;;8.80;2.80;;;;;;;;;;4943520;28;20051;-73
2023/10/05 11:54:58;;;;;;;9.63;2.72;;;;;;;;;;4925745;28;20485;-74
2023/10/05 11:57:24;;;;;;;9.18;2.78;;;;;;;;;;4927000;28;20210;-72
2023/10/05 11:59:50;;;;;;;9.43;2.35;;;;;;;;;;4923593;28;21203;-73
2023/10/05 12:02:17;;;;;;;9.45;2.70;;;;;;;;;;4932012;28;20071;-74
2023/10/05 12:04:43;;;;;;;9.35;2.78;;;;;;;;;;4928074;28;20948;-74
2023/10/05 12:07:14;;;;;;;12.30;2.53;;;;;;;;;;4940756;28;20094;-73
2023/10/05 12:09:44;;;;;;;7.47;2.25;;;;;;;;;;4927294;28;20058;-74
2023/10/05 12:12:18;;;;;;;8.80;3.03;;;;;;;;;;4917681;28;20027;-72
2023/10/05 12:14:44;;;;;;;9.32;3.15;;;;;;;;;;4923323;28;20028;-72
2023/10/05 12:17:11;;;;;;;11.23;2.90;;;;;;;;;;4923496;28;20518;-73
2023/10/05 12:19:39;;;;;;;11.15;2.85;;;;;;;;;;4922891;28;20027;-72
2023/10/05 12:22:06;;;;;;;10.02;2.70;;;;;;;;;;4919248;28;20038;-72
2023/10/05 12:24:33;;;;;;;9.85;3.05;;;;;;;;;;4920898;28;20122;-73
2023/10/05 12:27:04;;;;;;;9.05;2.78;;;;;;;;;;4917658;28;20042;-73
2023/10/05 12:29:30;;;;;;;9.13;2.80;;;;;;;;;;4923688;28;20035;-73
2023/10/05 12:32:08;;;;;;;8.82;2.70;;;;;;;;;;4921340;28;20518;-73
2023/10/05 12:34:35;;;;;;;12.88;3.03;;;;;;;;;;4922561;28;20032;-73
2023/10/05 12:37:01;;;;;;;11.50;2.90;;;;;;;;;;4917920;28;20772;-72
2023/10/05 12:39:29;;;;;;;9.50;3.08;;;;;;;;;;4919461;28;20042;-72
2023/10/05 12:41:56;;;;;;;9.43;2.97;;;;;;;;;;4916930;28;20465;-74
2023/10/05 12:44:22;;;;;;;9.00;2.85;;;;;;;;;;4934134;28;20082;-73
2023/10/05 12:46:49;;;;;;;8.48;2.97;;;;;;;;;;4915588;28;20548;-73
2023/10/05 12:49:16;;;;;;;10.60;2.95;;;;;;;;;;4904433;28;20312;-75
2023/10/05 12:51:44;;;;;;;8.13;2.45;;;;;;;;;;4927877;28;20536;-76
2023/10/05 12:54:18;;;;;;;9.18;2.85;;;;;;;;;;4934851;28;20743;-74
2023/10/05 12:56:50;;;;;;;11.15;3.00;;;;;;;;;;4935709;28;20043;-74
2023/10/05 12:59:17;;;;;;;10.32;2.78;;;;;;;;;;4922856;28;20118;-73
2023/10/05 13:01:43;;;;;;;8.95;2.92;;;;;;;;;;4919144;28;20043;-74
2023/10/05 13:04:11;;;;;;;8.52;2.50;;;;;;;;;;4931744;28;20031;-73
2023/10/05 13:06:38;;;;;;;10.43;2.72;;;;;;;;;;4932750;28;20139;-74
2023/10/05 13:09:11;;;;;;;8.98;2.92;;;;;;;;;;4917489;28;20362;-73
2023/10/05 13:11:37;;;;;;;9.75;2.95;;;;;;;;;;4886629;28;20103;-72
2023/10/05 13:14:08;;;;;;;8.90;2.80;;;;;;;;;;4908591;28;20035;-72
2023/10/05 13:16:35;;;;;;;8.68;2.55;;;;;;;;;;4921475;28;20114;-73
2023/10/05 13:19:03;;;;;;;10.60;3.08;;;;;;;;;;4919589;28;20034;-73
2023/10/05 13:21:29;;;;;;;11.57;3.15;;;;;;;;;;4937459;28;21111;-73
2023/10/05 13:23:56;;;;;;;7.63;2.55;;;;;;;;;;4920271;28;20043;-73
2023/10/05 13:26:25;;;;;;;7.85;2.70;;;;;;;;;;4923320;28;20023;-74
2023/10/05 13:28:51;;;;;;;11.30;2.80;;;;;;;;;;4925144;28;20041;-73
2023/10/05 13:31:20;;;;;;;10.15;2.65;;;;;;;;;;4927236;28;20125;-74
2023/10/05 13:33:48;;;;;;;9.60;2.50;;;;;;;;;;4938682;28;20043;-74
2023/10/05 13:36:14;;;;;;;11.55;2.88;;;;;;;;;;4927718;28;20027;-75
2023/10/05 13:38:43;;;;;;;8.32;2.55;;;;;;;;;;4928296;28;20122;-74
2023/10/05 13:41:18;;;;;;;10.45;3.08;;;;;;;;;;4924938;28;20054;-74
2023/10/05 13:43:47;;;;;;;9.48;2.90;;;;;;;;;;4927309;28;20046;-74
2023/10/05 13:46:15;;;;;;;7.80;2.42;;;;;;;;;;4918338;28;20289;-76
2023/10/05 13:48:46;;;;;;;9.68;2.70;;;;;;;;;;4886578;28;20555;-74
2023/10/05 13:51:15;;;;;;;9.27;2.70;;;;;;;;;;4887184;28;20654;-74
2023/10/05 13:53:46;;;;;;;13.60;2.50;;;;;;;;;;4887075;28;20466;-75
2023/10/05 13:56:13;;;;;;;8.82;2.63;;;;;;;;;;4887319;28;20035;-76
2023/10/05 13:58:43;;;;;;;9.27;2.47;;;;;;;;;;4888989;28;20038;-74
2023/10/05 14:01:23;;;;;;;8.45;2.53;;;;;;;;;;4886452;28;20028;-75
2023/10/05 14:03:50;;;;;;;9.20;2.55;;;;;;;;;;4880077;28;20035;-71
2023/10/05 14:06:17;;;;;;;11.30;2.83;;;;;;;;;;4883840;28;20141;-73
2023/10/05 14:08:46;;;;;;;9.27;2.70;;;;;;;;;;4890876;28;20067;-73
2023/10/05 14:11:15;;;;;;;11.35;2.55;;;;;;;;;;4873004;28;20117;-74
2023/10/05 14:13:43;;;;;;;9.05;2.80;;;;;;;;;;4903079;28;20027;-73
2023/10/05 14:16:11;;;;;;;8.52;2.75;;;;;;;;;;4883945;28;20031;-75
2023/10/05 14:18:38;;;;;;;10.15;2.85;;;;;;;;;;4902426;28;20035;-74
2023/10/05 14:21:04;;;;;;;12.27;2.97;;;;;;;;;;4886853;28;20035;-73
2023/10/05 14:23:30;;;;;;;10.27;2.83;;;;;;;;;;4892235;28;20070;-74
2023/10/05 14:25:57;;;;;;;7.72;2.63;;;;;;;;;;4921708;28;20521;-75
2023/10/05 14:28:25;;;;;;;8.23;2.60;;;;;;;;;;4925654;28;20046;-73
2023/10/05 14:30:51;;;;;;;8.30;2.40;;;;;;;;;;4923870;28;20482;-73
2023/10/05 14:33:17;;;;;;;9.18;2.55;;;;;;;;;;4925700;28;20042;-73
2023/10/05 14:35:49;;;;;;;11.32;2.80;;;;;;;;;;4924046;28;20090;-73
2023/10/05 14:38:16;;;;;;;8.35;2.85;;;;;;;;;;4925316;28;20325;-74
2023/10/05 14:40:49;;;;;;;13.15;2.95;;;;;;;;;;4942282;28;20035;-73
2023/10/05 14:43:30;;;;;;;9.38;3.05;;;;;;;;;;4928295;28;20031;-73
2023/10/05 14:45:59;;;;;;;9.15;2.75;;;;;;;;;;4923505;28;20030;-74
2023/10/05 14:48:29;;;;;;;7.30;2.28;;;;;;;;;;4925204;28;20156;-74
2023/10/05 14:50:57;;;;;;;8.88;2.60;;;;;;;;;;4923989;28;20033;-73
2023/10/05 14:53:24;;;;;;;8.07;2.42;;;;;;;;;;4928114;28;20211;-73
2023/10/05 14:55:51;;;;;;;11.95;2.58;;;;;;;;;;4923762;28;20568;-74
2023/10/05 14:58:22;;;;;;;9.00;2.65;;;;;;;;;;4927052;28;20032;-73
2023/10/05 15:00:51;;;;;;;7.82;2.40;;;;;;;;;;4940976;28;20314;-74
2023/10/05 15:03:17;;;;;;;8.48;2.78;;;;;;;;;;4941318;28;20102;-74
2023/10/05 15:05:43;;;;;;;7.45;2.42;;;;;;;;;;4927114;28;20137;-74
2023/10/05 15:08:11;;;;;;;9.57;2.90;;;;;;;;;;4920704;28;20406;-76
2023/10/05 15:10:40;;;;;;;8.50;2.67;;;;;;;;;;4940487;28;20382;-74
2023/10/05 15:13:07;;;;;;;12.90;3.03;;;;;;;;;;4922894;28;22081;-74
2023/10/05 15:15:34;;;;;;;9.15;2.53;;;;;;;;;;4924737;28;20031;-75
2023/10/05 15:18:00;;;;;;;10.45;2.70;;;;;;;;;;4920485;28;20027;-74